Time;durP1;ratioP1;P1;durP2;ratioP2;P2;SDS_P1;SDS_P2;PMS_P1;PMS_P2;Temp;Humidity;BMP_temperature;BMP_pressure;BME280_temperature;BME280_humidity;BME280_pressure;Samples;Min_cycle;Max_cycle;Signal;HPM_P1;HPM_P2
2022/01/20 00:00:02;;;;;;;0.00;0.00;;;;;;;;;;1748618;28;20221;-61
2022/01/20 00:01:08;;;;;;;0.03;0.03;;;;;;;;;;1746370;28;20227;-62
2022/01/20 00:02:01;;;;;;;0.22;0.22;;;;;;;;;;1750138;28;20280;-62
2022/01/20 00:02:57;;;;;;;0.00;0.00;;;;;;;;;;1750660;28;20267;-62
2022/01/20 00:03:50;;;;;;;0.00;0.00;;;;;;;;;;1746617;28;20254;-63
2022/01/20 00:04:48;;;;;;;0.00;0.00;;;;;;;;;;1749954;28;20287;-63
2022/01/20 00:06:09;;;;;;;0.10;0.10;;;;;;;;;;1742304;28;20233;-63
2022/01/20 00:08:11;;;;;;;0.10;0.10;;;;;;;;;;1751454;28;20563;-63
2022/01/20 00:09:18;;;;;;;0.00;0.00;;;;;;;;;;1744593;28;20189;-63
2022/01/20 00:25:45;;;;;;;0.00;0.00;;;;;;;;;;1734317;28;20604;-63
2022/01/20 00:25:59;;;;;;;0.00;0.00;;;;;;;;;;1743170;28;20237;-64
2022/01/20 00:26:54;;;;;;;0.08;0.08;;;;;;;;;;1755404;28;20225;-63
2022/01/20 00:27:52;;;;;;;0.00;0.00;;;;;;;;;;1755630;28;20200;-64
2022/01/20 00:28:47;;;;;;;0.00;0.00;;;;;;;;;;1752499;28;20198;-63
2022/01/20 00:30:06;;;;;;;0.00;0.00;;;;;;;;;;1751700;28;20763;-63
2022/01/20 00:31:07;;;;;;;0.00;0.00;;;;;;;;;;1744439;28;20233;-62
2022/01/20 00:32:09;;;;;;;0.10;0.10;;;;;;;;;;1750082;28;20194;-64
2022/01/20 00:33:14;;;;;;;0.00;0.00;;;;;;;;;;1751802;28;20299;-63
2022/01/20 00:34:13;;;;;;;0.13;0.13;;;;;;;;;;1744733;28;20313;-61
2022/01/20 00:35:16;;;;;;;0.00;0.00;;;;;;;;;;1752127;28;20200;-64
2022/01/20 00:37:23;;;;;;;0.10;0.10;;;;;;;;;;1745474;28;20266;-63
2022/01/20 00:38:14;;;;;;;0.00;0.00;;;;;;;;;;1749987;28;20208;-64
2022/01/20 00:39:07;;;;;;;0.00;0.00;;;;;;;;;;1752281;28;20209;-61
2022/01/20 00:39:58;;;;;;;0.17;0.17;;;;;;;;;;1749731;28;20197;-64
2022/01/20 00:40:51;;;;;;;0.00;0.00;;;;;;;;;;1754070;28;20224;-62
2022/01/20 00:41:42;;;;;;;0.00;0.00;;;;;;;;;;1758192;28;20547;-63
2022/01/20 00:42:34;;;;;;;0.00;0.00;;;;;;;;;;1757466;28;20488;-63
2022/01/20 00:43:25;;;;;;;0.00;0.00;;;;;;;;;;1758153;28;20218;-64
2022/01/20 00:44:17;;;;;;;0.00;0.00;;;;;;;;;;1756223;28;20197;-62
2022/01/20 00:45:09;;;;;;;0.00;0.00;;;;;;;;;;1754582;28;20290;-64
2022/01/20 00:46:00;;;;;;;0.00;0.00;;;;;;;;;;1754303;28;20232;-63
2022/01/20 00:46:53;;;;;;;0.00;0.00;;;;;;;;;;1751558;28;20197;-62
2022/01/20 00:47:44;;;;;;;0.00;0.00;;;;;;;;;;1752633;28;20333;-64
2022/01/20 00:48:38;;;;;;;0.00;0.00;;;;;;;;;;1759412;28;20204;-63
2022/01/20 00:49:29;;;;;;;0.00;0.00;;;;;;;;;;1754953;28;20697;-63
2022/01/20 00:50:22;;;;;;;0.00;0.00;;;;;;;;;;1750061;28;20201;-64
2022/01/20 00:51:14;;;;;;;0.10;0.10;;;;;;;;;;1752434;28;20237;-64
2022/01/20 00:52:06;;;;;;;0.00;0.00;;;;;;;;;;1752461;28;20712;-64
2022/01/20 00:52:59;;;;;;;0.08;0.08;;;;;;;;;;1750954;28;20229;-62
2022/01/20 00:53:51;;;;;;;0.00;0.00;;;;;;;;;;1752246;28;20229;-64
2022/01/20 00:54:43;;;;;;;0.00;0.00;;;;;;;;;;1751579;28;20467;-64
2022/01/20 00:55:35;;;;;;;0.00;0.00;;;;;;;;;;1749746;28;20249;-62
2022/01/20 00:56:26;;;;;;;0.05;0.05;;;;;;;;;;1754744;28;20220;-64
2022/01/20 00:57:18;;;;;;;0.00;0.00;;;;;;;;;;1758838;28;20196;-64
2022/01/20 00:58:10;;;;;;;0.00;0.00;;;;;;;;;;1755805;28;20622;-63
2022/01/20 00:59:02;;;;;;;0.10;0.10;;;;;;;;;;1758367;28;20239;-64
2022/01/20 00:59:53;;;;;;;0.10;0.10;;;;;;;;;;1751146;28;20202;-63
2022/01/20 01:00:45;;;;;;;0.00;0.00;;;;;;;;;;1746569;28;20251;-63
2022/01/20 01:01:36;;;;;;;0.00;0.00;;;;;;;;;;1751677;28;20262;-63
2022/01/20 01:02:28;;;;;;;0.00;0.00;;;;;;;;;;1751585;28;20791;-62
2022/01/20 01:03:21;;;;;;;0.10;0.10;;;;;;;;;;1751632;28;20204;-64
2022/01/20 01:04:13;;;;;;;0.00;0.00;;;;;;;;;;1752022;28;20202;-62
2022/01/20 01:05:05;;;;;;;0.00;0.00;;;;;;;;;;1750890;28;21370;-62
2022/01/20 01:06:08;;;;;;;0.00;0.00;;;;;;;;;;1748870;28;20766;-62
2022/01/20 01:07:27;;;;;;;0.00;0.00;;;;;;;;;;1755087;28;20189;-63
2022/01/20 01:08:20;;;;;;;0.00;0.00;;;;;;;;;;1756386;28;20200;-64
2022/01/20 01:09:11;;;;;;;0.00;0.00;;;;;;;;;;1757951;28;20247;-63
2022/01/20 01:10:05;;;;;;;0.00;0.00;;;;;;;;;;1751376;28;20215;-64
2022/01/20 01:10:56;;;;;;;0.10;0.10;;;;;;;;;;1748552;28;20229;-62
2022/01/20 01:11:52;;;;;;;0.00;0.00;;;;;;;;;;1754669;28;20194;-64
2022/01/20 01:12:48;;;;;;;0.00;0.00;;;;;;;;;;1751406;28;20197;-63
2022/01/20 01:13:40;;;;;;;0.10;0.10;;;;;;;;;;1759050;28;20194;-63
2022/01/20 01:14:33;;;;;;;0.00;0.00;;;;;;;;;;1756111;28;20202;-63
2022/01/20 01:15:30;;;;;;;0.00;0.00;;;;;;;;;;1756432;28;20580;-62
2022/01/20 01:16:24;;;;;;;0.00;0.00;;;;;;;;;;1753452;28;20698;-63
2022/01/20 01:20:09;;;;;;;0.10;0.10;;;;;;;;;;1752629;28;20200;-61
2022/01/20 01:21:15;;;;;;;0.00;0.00;;;;;;;;;;1745511;28;20232;-62
2022/01/20 01:22:21;;;;;;;0.00;0.00;;;;;;;;;;1752201;28;20293;-63
2022/01/20 01:23:13;;;;;;;0.03;0.03;;;;;;;;;;1750373;28;20190;-62
2022/01/20 01:24:06;;;;;;;0.00;0.00;;;;;;;;;;1745738;28;20213;-62
2022/01/20 01:25:00;;;;;;;0.00;0.00;;;;;;;;;;1749673;28;21087;-63
2022/01/20 01:25:51;;;;;;;0.00;0.00;;;;;;;;;;1750360;28;20615;-63
2022/01/20 01:26:44;;;;;;;0.00;0.00;;;;;;;;;;1752902;28;20411;-62
2022/01/20 01:27:38;;;;;;;0.00;0.00;;;;;;;;;;1753221;28;20559;-62
2022/01/20 01:28:32;;;;;;;0.00;0.00;;;;;;;;;;1749470;28;20726;-62
2022/01/20 01:29:40;;;;;;;0.00;0.00;;;;;;;;;;1747394;28;20210;-62
2022/01/20 01:30:51;;;;;;;0.00;0.00;;;;;;;;;;1750311;28;20324;-62
2022/01/20 01:31:42;;;;;;;0.00;0.00;;;;;;;;;;1753250;28;20235;-63
2022/01/20 01:32:46;;;;;;;0.10;0.10;;;;;;;;;;1752157;28;20201;-63
2022/01/20 01:33:40;;;;;;;0.00;0.00;;;;;;;;;;1751143;28;20213;-63
2022/01/20 01:34:38;;;;;;;0.00;0.00;;;;;;;;;;1752396;28;20309;-64
2022/01/20 01:35:29;;;;;;;0.10;0.10;;;;;;;;;;1748292;28;20658;-63
2022/01/20 01:36:23;;;;;;;0.20;0.20;;;;;;;;;;1752159;28;20689;-62
2022/01/20 01:37:36;;;;;;;0.00;0.00;;;;;;;;;;1746388;28;20202;-63
2022/01/20 01:38:36;;;;;;;0.10;0.10;;;;;;;;;;1750346;28;20221;-61
2022/01/20 01:39:29;;;;;;;0.05;0.05;;;;;;;;;;1748217;28;20202;-63
2022/01/20 01:40:21;;;;;;;0.00;0.00;;;;;;;;;;1750886;28;20205;-63
2022/01/20 01:41:16;;;;;;;0.00;0.00;;;;;;;;;;1752293;28;20250;-63
2022/01/20 01:42:08;;;;;;;0.00;0.00;;;;;;;;;;1752338;28;20201;-62
2022/01/20 01:43:05;;;;;;;0.00;0.00;;;;;;;;;;1750022;28;20459;-62
2022/01/20 01:44:01;;;;;;;0.00;0.00;;;;;;;;;;1746770;28;20278;-63
2022/01/20 01:44:54;;;;;;;0.00;0.00;;;;;;;;;;1751490;28;20247;-63
2022/01/20 01:45:46;;;;;;;0.00;0.00;;;;;;;;;;1743626;28;20259;-61
2022/01/20 01:46:39;;;;;;;0.00;0.00;;;;;;;;;;1755325;28;20236;-63
2022/01/20 01:47:30;;;;;;;0.10;0.10;;;;;;;;;;1753979;28;20208;-63
2022/01/20 01:48:23;;;;;;;0.00;0.00;;;;;;;;;;1756909;28;20208;-62
2022/01/20 01:49:14;;;;;;;0.00;0.00;;;;;;;;;;1753619;28;20732;-62
2022/01/20 01:50:07;;;;;;;0.00;0.00;;;;;;;;;;1759819;28;20291;-62
2022/01/20 01:50:59;;;;;;;0.00;0.00;;;;;;;;;;1756850;28;20235;-63
2022/01/20 01:51:52;;;;;;;0.00;0.00;;;;;;;;;;1759966;28;20222;-63
2022/01/20 01:52:43;;;;;;;0.00;0.00;;;;;;;;;;1759346;28;20204;-62
2022/01/20 01:53:36;;;;;;;0.00;0.00;;;;;;;;;;1760143;28;20232;-63
2022/01/20 01:54:28;;;;;;;0.20;0.20;;;;;;;;;;1759025;28;20210;-61
2022/01/20 01:55:20;;;;;;;0.10;0.10;;;;;;;;;;1752811;28;20208;-62
2022/01/20 01:56:11;;;;;;;0.10;0.10;;;;;;;;;;1755665;28;20236;-62
2022/01/20 01:57:06;;;;;;;0.00;0.00;;;;;;;;;;1754645;28;20235;-64
2022/01/20 01:57:58;;;;;;;0.00;0.00;;;;;;;;;;1756743;28;20236;-63
2022/01/20 01:58:50;;;;;;;0.00;0.00;;;;;;;;;;1754185;28;20204;-63
2022/01/20 01:59:41;;;;;;;0.00;0.00;;;;;;;;;;1754467;28;20450;-63
2022/01/20 02:00:33;;;;;;;0.00;0.00;;;;;;;;;;1755643;28;20668;-63
2022/01/20 02:01:26;;;;;;;0.00;0.00;;;;;;;;;;1757486;28;20383;-62
2022/01/20 02:02:18;;;;;;;0.10;0.10;;;;;;;;;;1752551;28;20280;-64
2022/01/20 02:03:10;;;;;;;0.00;0.00;;;;;;;;;;1758490;28;20209;-64
2022/01/20 02:04:12;;;;;;;0.20;0.20;;;;;;;;;;1760406;28;20742;-63
2022/01/20 02:05:04;;;;;;;0.00;0.00;;;;;;;;;;1756832;28;20908;-63
2022/01/20 02:06:14;;;;;;;0.00;0.00;;;;;;;;;;1756575;28;20238;-63
2022/01/20 02:08:32;;;;;;;0.00;0.00;;;;;;;;;;1759270;28;20309;-63
2022/01/20 02:09:43;;;;;;;0.10;0.10;;;;;;;;;;1759196;28;20190;-62
2022/01/20 02:17:55;;;;;;;0.15;0.15;;;;;;;;;;1741068;28;20279;-62
2022/01/20 02:18:49;;;;;;;0.17;0.17;;;;;;;;;;1738947;28;20199;-61
2022/01/20 02:19:48;;;;;;;0.00;0.00;;;;;;;;;;1762221;27;20322;-62
2022/01/20 02:20:43;;;;;;;0.00;0.00;;;;;;;;;;1764486;27;20239;-62
2022/01/20 02:21:37;;;;;;;0.08;0.08;;;;;;;;;;1765130;27;20230;-62
2022/01/20 02:22:28;;;;;;;0.00;0.00;;;;;;;;;;1760213;27;20209;-61
2022/01/20 02:23:21;;;;;;;0.00;0.00;;;;;;;;;;1766672;27;20288;-61
2022/01/20 02:24:13;;;;;;;0.10;0.10;;;;;;;;;;1766970;27;20665;-61
2022/01/20 02:25:05;;;;;;;0.00;0.00;;;;;;;;;;1766720;27;20200;-62
2022/01/20 02:25:56;;;;;;;0.00;0.00;;;;;;;;;;1763562;27;20646;-62
2022/01/20 02:26:49;;;;;;;0.00;0.00;;;;;;;;;;1766662;27;20196;-62
2022/01/20 02:27:40;;;;;;;0.20;0.20;;;;;;;;;;1766716;27;20709;-62
2022/01/20 02:28:32;;;;;;;0.05;0.05;;;;;;;;;;1762680;27;20197;-63
2022/01/20 02:29:25;;;;;;;0.00;0.00;;;;;;;;;;1761359;27;20210;-62
2022/01/20 02:30:16;;;;;;;0.00;0.00;;;;;;;;;;1762691;27;20264;-62
2022/01/20 02:31:09;;;;;;;0.00;0.00;;;;;;;;;;1765110;27;20672;-63
2022/01/20 02:32:00;;;;;;;0.00;0.00;;;;;;;;;;1764479;27;20695;-63
2022/01/20 02:32:53;;;;;;;0.00;0.00;;;;;;;;;;1765544;27;20207;-62
2022/01/20 02:33:45;;;;;;;0.17;0.17;;;;;;;;;;1761511;27;20240;-62
2022/01/20 02:34:37;;;;;;;0.00;0.00;;;;;;;;;;1763122;27;20220;-60
2022/01/20 02:35:31;;;;;;;0.10;0.10;;;;;;;;;;1756036;27;20308;-64
2022/01/20 02:36:23;;;;;;;0.10;0.10;;;;;;;;;;1764495;27;20702;-60
2022/01/20 02:37:15;;;;;;;0.00;0.00;;;;;;;;;;1760051;28;20212;-61
2022/01/20 02:38:12;;;;;;;0.00;0.00;;;;;;;;;;1764064;27;20259;-61
2022/01/20 02:39:10;;;;;;;0.00;0.00;;;;;;;;;;1767127;27;20191;-62
2022/01/20 02:40:28;;;;;;;0.00;0.00;;;;;;;;;;1765924;27;20198;-61
2022/01/20 02:44:53;;;;;;;0.00;0.00;;;;;;;;;;1762700;27;20204;-61
2022/01/20 02:45:45;;;;;;;0.00;0.00;;;;;;;;;;1763740;27;20265;-61
2022/01/20 02:46:37;;;;;;;0.00;0.00;;;;;;;;;;1764309;27;20605;-62
2022/01/20 02:47:30;;;;;;;0.00;0.00;;;;;;;;;;1760416;27;20959;-61
2022/01/20 02:48:21;;;;;;;0.10;0.10;;;;;;;;;;1764347;27;20209;-61
2022/01/20 02:49:14;;;;;;;0.00;0.00;;;;;;;;;;1760726;27;20603;-65
2022/01/20 02:50:06;;;;;;;0.00;0.00;;;;;;;;;;1762824;27;20667;-61
2022/01/20 02:50:59;;;;;;;0.00;0.00;;;;;;;;;;1758039;27;20258;-61
2022/01/20 02:51:52;;;;;;;0.00;0.00;;;;;;;;;;1766569;27;20204;-61
2022/01/20 02:52:44;;;;;;;0.00;0.00;;;;;;;;;;1766214;27;20194;-61
2022/01/20 02:53:35;;;;;;;0.00;0.00;;;;;;;;;;1766701;27;20496;-60
2022/01/20 02:54:27;;;;;;;0.00;0.00;;;;;;;;;;1766648;27;20234;-65
2022/01/20 02:55:19;;;;;;;0.00;0.00;;;;;;;;;;1765190;27;20700;-62
2022/01/20 02:56:11;;;;;;;0.00;0.00;;;;;;;;;;1764885;27;20654;-62
2022/01/20 02:57:02;;;;;;;0.10;0.10;;;;;;;;;;1766406;27;20215;-61
2022/01/20 02:57:55;;;;;;;0.20;0.20;;;;;;;;;;1766317;27;20204;-61
2022/01/20 02:58:46;;;;;;;0.00;0.00;;;;;;;;;;1767398;27;20683;-61
2022/01/20 02:59:38;;;;;;;0.00;0.00;;;;;;;;;;1763982;27;20607;-61
2022/01/20 03:00:31;;;;;;;0.00;0.00;;;;;;;;;;1762758;27;20228;-61
2022/01/20 03:01:23;;;;;;;0.00;0.00;;;;;;;;;;1764330;27;20248;-61
2022/01/20 03:02:14;;;;;;;0.10;0.10;;;;;;;;;;1766348;27;20204;-61
2022/01/20 03:03:06;;;;;;;0.00;0.00;;;;;;;;;;1764974;27;20291;-64
2022/01/20 03:03:58;;;;;;;0.00;0.00;;;;;;;;;;1760040;28;20247;-62
2022/01/20 03:04:51;;;;;;;0.00;0.00;;;;;;;;;;1765713;27;20200;-61
2022/01/20 03:05:42;;;;;;;0.00;0.00;;;;;;;;;;1764083;27;20236;-62
2022/01/20 03:06:36;;;;;;;0.00;0.00;;;;;;;;;;1765191;27;20192;-63
2022/01/20 03:07:27;;;;;;;0.00;0.00;;;;;;;;;;1759765;28;20204;-62
2022/01/20 03:08:20;;;;;;;0.00;0.00;;;;;;;;;;1763105;27;20208;-61
2022/01/20 03:09:11;;;;;;;0.00;0.00;;;;;;;;;;1765356;27;20200;-64
2022/01/20 03:10:03;;;;;;;0.00;0.00;;;;;;;;;;1766263;27;20203;-61
2022/01/20 03:10:54;;;;;;;0.00;0.00;;;;;;;;;;1763785;27;20695;-62
2022/01/20 03:11:47;;;;;;;0.00;0.00;;;;;;;;;;1766832;27;20665;-62
2022/01/20 03:12:38;;;;;;;0.00;0.00;;;;;;;;;;1765555;27;20248;-61
2022/01/20 03:13:30;;;;;;;0.00;0.00;;;;;;;;;;1765909;27;20249;-63
2022/01/20 03:14:21;;;;;;;0.00;0.00;;;;;;;;;;1766366;27;20231;-62
2022/01/20 03:15:13;;;;;;;0.00;0.00;;;;;;;;;;1760677;27;20235;-62
2022/01/20 03:16:05;;;;;;;0.00;0.00;;;;;;;;;;1760328;27;20292;-62
2022/01/20 03:16:57;;;;;;;0.00;0.00;;;;;;;;;;1762603;27;20690;-61
2022/01/20 03:17:49;;;;;;;0.00;0.00;;;;;;;;;;1761845;27;20209;-63
2022/01/20 03:18:41;;;;;;;0.00;0.00;;;;;;;;;;1766871;27;20204;-60
2022/01/20 03:19:32;;;;;;;0.00;0.00;;;;;;;;;;1765587;27;20200;-61
2022/01/20 03:20:24;;;;;;;0.00;0.00;;;;;;;;;;1758859;27;20725;-62
2022/01/20 03:21:16;;;;;;;0.00;0.00;;;;;;;;;;1761601;27;20307;-64
2022/01/20 03:22:09;;;;;;;0.00;0.00;;;;;;;;;;1766293;27;20602;-63
2022/01/20 03:23:01;;;;;;;0.10;0.10;;;;;;;;;;1766025;27;20201;-62
2022/01/20 03:23:53;;;;;;;0.00;0.00;;;;;;;;;;1759948;28;20208;-61
2022/01/20 03:24:44;;;;;;;0.00;0.00;;;;;;;;;;1764523;27;20204;-62
2022/01/20 03:25:37;;;;;;;0.00;0.00;;;;;;;;;;1757250;28;20258;-62
2022/01/20 03:26:28;;;;;;;0.00;0.00;;;;;;;;;;1761914;27;20228;-62
2022/01/20 03:27:20;;;;;;;0.10;0.10;;;;;;;;;;1766740;27;20253;-62
2022/01/20 03:28:12;;;;;;;0.10;0.10;;;;;;;;;;1764697;27;20527;-63
2022/01/20 03:29:04;;;;;;;0.10;0.10;;;;;;;;;;1759614;28;20207;-61
2022/01/20 03:29:56;;;;;;;0.00;0.00;;;;;;;;;;1762686;27;20240;-63
2022/01/20 03:30:48;;;;;;;0.00;0.00;;;;;;;;;;1764326;27;20228;-63
2022/01/20 03:31:39;;;;;;;0.00;0.00;;;;;;;;;;1764566;27;20259;-61
2022/01/20 03:32:32;;;;;;;0.10;0.10;;;;;;;;;;1760155;27;20710;-61
2022/01/20 03:33:23;;;;;;;0.00;0.00;;;;;;;;;;1762998;27;20204;-64
2022/01/20 03:34:15;;;;;;;0.03;0.03;;;;;;;;;;1759152;27;20310;-61
2022/01/20 03:35:07;;;;;;;0.00;0.00;;;;;;;;;;1766597;27;20204;-64
2022/01/20 03:35:59;;;;;;;0.00;0.00;;;;;;;;;;1761770;27;20582;-64
2022/01/20 03:36:50;;;;;;;0.00;0.00;;;;;;;;;;1762943;27;20208;-62
2022/01/20 03:37:44;;;;;;;0.00;0.00;;;;;;;;;;1761464;27;20654;-61
2022/01/20 03:38:35;;;;;;;0.00;0.00;;;;;;;;;;1764292;27;20211;-61
2022/01/20 03:39:27;;;;;;;0.00;0.00;;;;;;;;;;1764768;27;20204;-63
2022/01/20 03:40:20;;;;;;;0.00;0.00;;;;;;;;;;1764141;27;20204;-61
2022/01/20 03:41:13;;;;;;;0.00;0.00;;;;;;;;;;1765136;27;20889;-62
2022/01/20 03:42:04;;;;;;;0.00;0.00;;;;;;;;;;1760919;27;20228;-62
2022/01/20 03:42:56;;;;;;;0.10;0.10;;;;;;;;;;1760877;27;20659;-61
2022/01/20 03:43:48;;;;;;;0.40;0.40;;;;;;;;;;1765973;27;20200;-62
2022/01/20 03:44:40;;;;;;;0.00;0.00;;;;;;;;;;1765984;27;20650;-62
2022/01/20 03:45:31;;;;;;;0.00;0.00;;;;;;;;;;1757607;28;20259;-62
2022/01/20 03:46:23;;;;;;;0.00;0.00;;;;;;;;;;1763515;27;20232;-62
2022/01/20 03:47:15;;;;;;;0.00;0.00;;;;;;;;;;1760292;27;20581;-61
2022/01/20 03:48:10;;;;;;;0.10;0.10;;;;;;;;;;1764642;27;20299;-62
2022/01/20 03:49:08;;;;;;;0.00;0.00;;;;;;;;;;1767163;27;20197;-61
2022/01/20 03:50:59;;;;;;;0.00;0.00;;;;;;;;;;1763436;27;20284;-61
2022/01/20 03:51:21;;;;;;;0.10;0.10;;;;;;;;;;1760769;27;20714;-61
2022/01/20 03:52:13;;;;;;;0.05;0.05;;;;;;;;;;1766059;27;20703;-62
2022/01/20 03:53:05;;;;;;;0.00;0.00;;;;;;;;;;1765035;27;20317;-61
2022/01/20 03:53:58;;;;;;;0.00;0.00;;;;;;;;;;1759651;28;20342;-61
2022/01/20 03:54:49;;;;;;;0.00;0.00;;;;;;;;;;1765186;27;20249;-62
2022/01/20 03:55:41;;;;;;;0.00;0.00;;;;;;;;;;1764003;27;20235;-61
2022/01/20 03:56:32;;;;;;;0.00;0.00;;;;;;;;;;1764890;27;20824;-61
2022/01/20 03:57:25;;;;;;;0.10;0.10;;;;;;;;;;1760270;28;20549;-61
2022/01/20 03:58:16;;;;;;;0.00;0.00;;;;;;;;;;1762690;27;20222;-64
2022/01/20 03:59:08;;;;;;;0.10;0.10;;;;;;;;;;1766300;27;20218;-61
2022/01/20 03:59:59;;;;;;;0.00;0.00;;;;;;;;;;1763895;27;20196;-62
2022/01/20 04:00:51;;;;;;;0.00;0.00;;;;;;;;;;1757341;27;20316;-61
2022/01/20 04:01:43;;;;;;;0.00;0.00;;;;;;;;;;1763711;27;20201;-62
2022/01/20 04:02:38;;;;;;;0.00;0.00;;;;;;;;;;1765928;27;20217;-65
2022/01/20 04:03:29;;;;;;;0.00;0.00;;;;;;;;;;1763041;27;20236;-63
2022/01/20 04:04:21;;;;;;;0.00;0.00;;;;;;;;;;1760904;27;20200;-64
2022/01/20 04:05:12;;;;;;;0.00;0.00;;;;;;;;;;1761445;27;20257;-61
2022/01/20 04:06:04;;;;;;;0.00;0.00;;;;;;;;;;1765660;27;20255;-62
2022/01/20 04:06:56;;;;;;;0.00;0.00;;;;;;;;;;1764174;27;20227;-60
2022/01/20 04:07:48;;;;;;;0.00;0.00;;;;;;;;;;1765730;27;20203;-64
2022/01/20 04:08:41;;;;;;;0.10;0.10;;;;;;;;;;1764832;27;20204;-63
2022/01/20 04:09:34;;;;;;;0.00;0.00;;;;;;;;;;1765682;27;20633;-61
2022/01/20 04:10:25;;;;;;;0.00;0.00;;;;;;;;;;1758559;27;20270;-62
2022/01/20 04:11:18;;;;;;;0.05;0.05;;;;;;;;;;1762177;27;20236;-63
2022/01/20 04:12:09;;;;;;;0.00;0.00;;;;;;;;;;1764136;27;20649;-61
2022/01/20 04:13:01;;;;;;;0.00;0.00;;;;;;;;;;1763463;27;20195;-63
2022/01/20 04:13:53;;;;;;;0.05;0.05;;;;;;;;;;1766476;27;20196;-61
2022/01/20 04:14:48;;;;;;;0.00;0.00;;;;;;;;;;1765987;27;20314;-64
2022/01/20 04:15:41;;;;;;;0.00;0.00;;;;;;;;;;1757175;28;20303;-63
2022/01/20 04:16:36;;;;;;;0.00;0.00;;;;;;;;;;1764315;27;20219;-61
2022/01/20 04:17:28;;;;;;;0.10;0.10;;;;;;;;;;1758679;28;20193;-63
2022/01/20 04:18:25;;;;;;;0.10;0.10;;;;;;;;;;1763267;27;20206;-60
2022/01/20 04:19:16;;;;;;;0.00;0.00;;;;;;;;;;1760888;27;20382;-61
2022/01/20 04:20:09;;;;;;;0.10;0.10;;;;;;;;;;1762242;27;20261;-62
2022/01/20 04:21:00;;;;;;;0.03;0.03;;;;;;;;;;1764321;27;20238;-63
2022/01/20 04:21:52;;;;;;;0.00;0.00;;;;;;;;;;1763019;27;20203;-62
2022/01/20 04:22:44;;;;;;;0.00;0.00;;;;;;;;;;1760622;27;20312;-61
2022/01/20 04:23:36;;;;;;;0.10;0.10;;;;;;;;;;1762950;27;20200;-62
2022/01/20 04:24:28;;;;;;;0.00;0.00;;;;;;;;;;1765628;27;20268;-63
2022/01/20 04:25:21;;;;;;;0.10;0.10;;;;;;;;;;1759635;27;20302;-62
2022/01/20 04:26:12;;;;;;;0.20;0.20;;;;;;;;;;1760906;27;20231;-61
2022/01/20 04:27:05;;;;;;;0.10;0.10;;;;;;;;;;1765169;27;20719;-62
2022/01/20 04:27:56;;;;;;;0.00;0.00;;;;;;;;;;1765620;27;20214;-62
2022/01/20 04:28:53;;;;;;;0.00;0.00;;;;;;;;;;1760699;28;20283;-61
2022/01/20 04:29:44;;;;;;;0.00;0.00;;;;;;;;;;1760389;27;20350;-61
2022/01/20 04:30:37;;;;;;;0.03;0.03;;;;;;;;;;1756847;28;20311;-61
2022/01/20 04:31:30;;;;;;;0.00;0.00;;;;;;;;;;1764248;27;20212;-62
2022/01/20 04:32:23;;;;;;;0.00;0.00;;;;;;;;;;1759387;28;20201;-61
2022/01/20 04:33:15;;;;;;;0.00;0.00;;;;;;;;;;1764436;27;20697;-60
2022/01/20 04:34:08;;;;;;;0.00;0.00;;;;;;;;;;1759431;27;20291;-61
2022/01/20 04:34:59;;;;;;;0.00;0.00;;;;;;;;;;1764253;27;20641;-61
2022/01/20 04:35:51;;;;;;;0.00;0.00;;;;;;;;;;1754972;28;20517;-64
2022/01/20 04:36:45;;;;;;;0.13;0.13;;;;;;;;;;1763521;27;20200;-63
2022/01/20 04:37:37;;;;;;;0.20;0.20;;;;;;;;;;1760664;28;20204;-64
2022/01/20 04:38:29;;;;;;;0.00;0.00;;;;;;;;;;1765686;27;20249;-64
2022/01/20 04:39:24;;;;;;;0.00;0.00;;;;;;;;;;1765255;27;20721;-61
2022/01/20 04:40:18;;;;;;;0.00;0.00;;;;;;;;;;1761833;28;20230;-62
2022/01/20 04:41:09;;;;;;;0.00;0.00;;;;;;;;;;1764295;27;20239;-62
2022/01/20 04:42:01;;;;;;;0.10;0.10;;;;;;;;;;1760731;27;20292;-64
2022/01/20 04:42:53;;;;;;;0.00;0.00;;;;;;;;;;1761931;28;20235;-62
2022/01/20 04:43:46;;;;;;;0.00;0.00;;;;;;;;;;1766705;28;20200;-63
2022/01/20 04:44:42;;;;;;;0.00;0.00;;;;;;;;;;1765165;27;20247;-61
2022/01/20 04:45:40;;;;;;;0.17;0.17;;;;;;;;;;1764091;27;20231;-61
2022/01/20 04:46:38;;;;;;;0.00;0.00;;;;;;;;;;1765117;27;20248;-61
2022/01/20 04:47:38;;;;;;;0.00;0.00;;;;;;;;;;1766404;27;20188;-62
2022/01/20 04:48:43;;;;;;;0.00;0.00;;;;;;;;;;1761211;28;20204;-62
2022/01/20 04:57:46;;;;;;;0.13;0.13;;;;;;;;;;1765576;28;20269;-65
2022/01/20 04:58:37;;;;;;;0.03;0.03;;;;;;;;;;1766437;28;20215;-63
2022/01/20 04:59:29;;;;;;;0.20;0.20;;;;;;;;;;1764994;28;20200;-62
2022/01/20 05:00:21;;;;;;;0.10;0.10;;;;;;;;;;1758870;28;20682;-62
2022/01/20 05:01:13;;;;;;;0.00;0.00;;;;;;;;;;1760776;28;20224;-62
2022/01/20 05:02:04;;;;;;;0.10;0.10;;;;;;;;;;1760572;28;20705;-65
2022/01/20 05:02:57;;;;;;;0.20;0.20;;;;;;;;;;1761598;28;20200;-64
2022/01/20 05:03:48;;;;;;;0.00;0.00;;;;;;;;;;1766707;28;20211;-62
2022/01/20 05:04:41;;;;;;;0.10;0.10;;;;;;;;;;1763926;28;20199;-64
2022/01/20 05:05:32;;;;;;;0.00;0.00;;;;;;;;;;1762989;28;20238;-62
2022/01/20 05:06:24;;;;;;;0.00;0.00;;;;;;;;;;1762832;28;20277;-65
2022/01/20 05:07:21;;;;;;;0.10;0.10;;;;;;;;;;1758465;28;20240;-65
2022/01/20 05:08:17;;;;;;;0.10;0.10;;;;;;;;;;1765052;28;20204;-62
2022/01/20 05:09:09;;;;;;;0.00;0.00;;;;;;;;;;1766003;28;20227;-62
2022/01/20 05:10:05;;;;;;;0.00;0.00;;;;;;;;;;1765630;28;20246;-61
2022/01/20 05:11:02;;;;;;;0.03;0.03;;;;;;;;;;1765938;28;20228;-63
2022/01/20 05:12:00;;;;;;;0.00;0.00;;;;;;;;;;1765250;28;20221;-61
2022/01/20 05:13:10;;;;;;;0.00;0.00;;;;;;;;;;1761563;28;20235;-62
2022/01/20 05:14:01;;;;;;;0.03;0.03;;;;;;;;;;1759703;28;20193;-62
2022/01/20 05:14:54;;;;;;;0.10;0.10;;;;;;;;;;1764235;28;20224;-61
2022/01/20 05:15:46;;;;;;;0.03;0.03;;;;;;;;;;1757206;28;20268;-64
2022/01/20 05:16:38;;;;;;;0.10;0.10;;;;;;;;;;1765414;28;20236;-62
2022/01/20 05:17:29;;;;;;;0.00;0.00;;;;;;;;;;1766123;28;20210;-62
2022/01/20 05:18:22;;;;;;;0.00;0.00;;;;;;;;;;1762796;28;20205;-62
2022/01/20 05:19:13;;;;;;;0.00;0.00;;;;;;;;;;1765128;28;20216;-61
2022/01/20 05:20:06;;;;;;;0.00;0.00;;;;;;;;;;1762309;28;20287;-62
2022/01/20 05:20:57;;;;;;;0.00;0.00;;;;;;;;;;1757352;28;20237;-61
2022/01/20 05:21:49;;;;;;;0.00;0.00;;;;;;;;;;1762850;28;20622;-61
2022/01/20 05:22:40;;;;;;;0.00;0.00;;;;;;;;;;1764963;28;20212;-61
2022/01/20 05:23:33;;;;;;;0.10;0.10;;;;;;;;;;1762550;28;20201;-62
2022/01/20 05:24:24;;;;;;;0.00;0.00;;;;;;;;;;1760652;28;20204;-62
2022/01/20 05:25:17;;;;;;;0.10;0.10;;;;;;;;;;1764070;28;20200;-64
2022/01/20 05:26:10;;;;;;;0.08;0.08;;;;;;;;;;1763121;28;20481;-62
2022/01/20 05:27:02;;;;;;;0.00;0.00;;;;;;;;;;1764031;28;20204;-65
2022/01/20 05:27:54;;;;;;;0.10;0.10;;;;;;;;;;1765133;27;20235;-61
2022/01/20 05:28:45;;;;;;;0.00;0.00;;;;;;;;;;1760623;28;20214;-61
2022/01/20 05:29:37;;;;;;;0.10;0.10;;;;;;;;;;1762529;28;20291;-62
2022/01/20 05:30:28;;;;;;;0.08;0.08;;;;;;;;;;1757130;28;20555;-62
2022/01/20 05:31:21;;;;;;;0.10;0.10;;;;;;;;;;1763155;28;20328;-63
2022/01/20 05:32:12;;;;;;;0.03;0.03;;;;;;;;;;1764730;28;20237;-63
2022/01/20 05:33:05;;;;;;;0.00;0.00;;;;;;;;;;1765048;28;20207;-61
2022/01/20 05:33:56;;;;;;;0.00;0.00;;;;;;;;;;1759291;28;20590;-63
2022/01/20 05:34:48;;;;;;;0.15;0.15;;;;;;;;;;1763917;28;20552;-61
2022/01/20 05:35:39;;;;;;;0.10;0.10;;;;;;;;;;1762317;28;20596;-61
2022/01/20 05:36:31;;;;;;;0.00;0.00;;;;;;;;;;1761593;28;20761;-61
2022/01/20 05:37:23;;;;;;;0.00;0.00;;;;;;;;;;1759405;28;20624;-62
2022/01/20 05:38:15;;;;;;;0.00;0.00;;;;;;;;;;1762601;28;20317;-63
2022/01/20 05:39:06;;;;;;;0.00;0.00;;;;;;;;;;1759009;28;20607;-62
2022/01/20 05:39:58;;;;;;;0.05;0.05;;;;;;;;;;1764687;27;20688;-61
2022/01/20 05:40:49;;;;;;;0.05;0.05;;;;;;;;;;1762490;28;20231;-62
2022/01/20 05:41:43;;;;;;;0.00;0.00;;;;;;;;;;1765929;28;20533;-62
2022/01/20 05:42:36;;;;;;;0.10;0.10;;;;;;;;;;1764786;28;20658;-62
2022/01/20 05:43:28;;;;;;;0.00;0.00;;;;;;;;;;1762894;28;20290;-62
2022/01/20 05:44:19;;;;;;;0.10;0.10;;;;;;;;;;1764554;28;20196;-63
2022/01/20 05:45:13;;;;;;;0.15;0.15;;;;;;;;;;1760278;28;20197;-64
2022/01/20 05:46:05;;;;;;;0.15;0.15;;;;;;;;;;1759982;28;20635;-63
2022/01/20 05:46:57;;;;;;;0.00;0.00;;;;;;;;;;1764134;28;20264;-63
2022/01/20 05:47:57;;;;;;;0.00;0.00;;;;;;;;;;1765314;28;20201;-63
2022/01/20 05:48:50;;;;;;;0.30;0.30;;;;;;;;;;1759786;28;20194;-63
2022/01/20 05:49:41;;;;;;;0.10;0.10;;;;;;;;;;1763241;28;20204;-62
2022/01/20 05:50:33;;;;;;;0.03;0.03;;;;;;;;;;1762961;28;20251;-63
2022/01/20 05:51:24;;;;;;;0.15;0.15;;;;;;;;;;1765045;28;20567;-63
2022/01/20 05:52:18;;;;;;;0.00;0.00;;;;;;;;;;1765870;28;20257;-64
2022/01/20 05:53:10;;;;;;;0.00;0.00;;;;;;;;;;1764810;28;20208;-63
2022/01/20 05:54:02;;;;;;;0.05;0.05;;;;;;;;;;1759175;28;20209;-63
2022/01/20 05:54:54;;;;;;;0.10;0.10;;;;;;;;;;1763613;28;20202;-63
2022/01/20 05:55:45;;;;;;;0.10;0.10;;;;;;;;;;1763355;28;20280;-63
2022/01/20 05:56:37;;;;;;;0.10;0.10;;;;;;;;;;1762271;28;20246;-62
2022/01/20 05:57:30;;;;;;;0.00;0.00;;;;;;;;;;1765207;28;20669;-62
2022/01/20 05:58:22;;;;;;;0.10;0.10;;;;;;;;;;1765853;28;20570;-62
2022/01/20 05:59:14;;;;;;;0.10;0.10;;;;;;;;;;1765186;28;20464;-63
2022/01/20 06:00:07;;;;;;;0.00;0.00;;;;;;;;;;1762330;28;20560;-64
2022/01/20 06:00:59;;;;;;;0.00;0.00;;;;;;;;;;1757523;28;20717;-62
2022/01/20 06:01:54;;;;;;;0.00;0.00;;;;;;;;;;1762370;28;20205;-63